Portada
METAR-TAF:

METAR-TAF

Aeroports :

Accra, Ghana

latitud: 05-36N, longitud: 000-10W, altitud: 68 m

Observació

L'informe es va fer fa 34 minuts, a les 08:00 UTC
Vent 10 kt del Oest
Temperatura 28°C
Humitat 84%
Pressió 1013 hPa
Visibilitat 10 km o més
Escasses núvols a una alçada de 1400 ft

METAR: DGAA 240800Z 26010KT 9999 FEW014 28/25 Q1013 NOSIG

Hora: 08:34 (08:34 UTC)

Pronòstic

L'informe es va fer fa 3 hores i 14 minuts, a les 05:20 UTC
Pronòstic vàlid del 24 a les 06 UTC al 25 a les 12 UTC
Vent 10 kt del Oest
Visibilitat 10 km o més
Cel ennuvolat a una alçada de 1500 ft
Evolucionant progressivament
l' 24 a les 11 UTC al 24 a les 13 UTC
Vent 15 kt del Sud/Sud-Oest
Núvols disperses a una alçada de 2500 ft
Evolucionant progressivament
l' 25 a les 01 UTC al 25 a les 03 UTC
Vent 10 kt del Oest

TAF: DGAA 240520Z 2406/2512 27010KT 9999 BKN015 BECMG 2411/2413 20015KT SCT025 BECMG 2501/2503 27010KT

Observacions i pronòstics meteorològics de més de 4000 aeroports (METAR i TAF).

Les estacions disponibles són els punts grocs i vermells al mapa.

Posi el ratolí al punt desitjat per veure el nom de l'estació.

Feu clic per veure les observacions i els pronòstics meteorològics.

Per canviar el mapa: feu clic els botons verds amb una creu de color negre per apropar; al botó verd amb un guió per allunyar la imatge; o en les fletxes verdes per a mapes adjacents.


METAR-TAF: